Ookala, HI (96774)

3:55 AM HST on September 01, 2014 (GMT -1000)
Hamakua Coast | Change Station
CLOSE
Current Station
Personal Weather Station
Location: Ninole, HI
Elevation: 1120 ft
Nearby Weather Stations

Elev 1120 ft 19.92 °N, 155.18 °W | Updated 14 minutes ago

Overcast
Overcast
72.3 °F
Feels Like 72.3 °F
N
6.0
Wind Variable Wind from SE

Today
High -- | Low -- °F
--% Chance of Precip.
Yesterday
High -- | Low -- °F
Precip. -- in
6:05 AM 6:36 PM
Waxing Crescent, 41% visible
Pressure 29.99 in
Visibility 10.0 miles
Clouds Overcast 11000 ft
Dew Point 69 °F
Humidity 89%
Rainfall 0.00 in
Snow Depth Not available.
UV 0 out of 12
Pollen Not available.
Air Quality Not available.
Flu Activity Not available.
METAR PHTO 011353Z 21003KT 10SM OVC110 23/21 A2999 RMK AO2 SLP154 T02330211 $

More Conditions Fewer Conditions

Pressure 29.99 in
Visibility 10.0 miles
Clouds Overcast 11000 ft
Dew Point 69 °F
Humidity 89%
Rainfall 0.00 in
Snow Depth Not available.
UV 0 out of 12
Pollen Not available.
Air Quality Not available.
Flu Activity Not available.
METAR PHTO 011353Z 21003KT 10SM OVC110 23/21 A2999 RMK AO2 SLP154 T02330211 $

More Conditions Fewer Conditions

10-Day Weather Forecast

Almanac

Astronomy

Sep. 01, 2014 Rise Set
Actual Time 6:05 AM HST 6:36 PM HST
Civil Twilight 5:43 AM HST 6:58 PM HST
Nautical Twilight 5:17 AM HST 7:24 PM HST
Astronomical Twilight 4:50 AM HST 7:50 PM HST
Moon 12:09 PM HST 11:40 PM HST
Length of Visible Light 13h 15m
Length of Day
12h 30m
Tomorrow will be 1m 5s shorter.
Waxing Crescent, 41% of the Moon is Illuminated
Today
Waxing Crescent
Sep 2
First Quarter
Sep 8
Full
Sep 15
Last Quarter
Sep 24
New

Today's Extremes

State Highs State Lows

Community

WunderPhotos

Upload Photos

1,749,222 photos uploaded!

Nearby

Air Quality

  Air Quality AQ Index Pollutant
Yesterday Good
PM2.5

Snow Depth

Station Depth Elevation
No new snow has been reported.

Earthquake Activity

City Distance Mag. Time & Date
No recent earthquake activity has been reported nearby.
Minimum magnitude displayed is 2.5.

Coastal Water Temperatures

Place Temperature
No Stations Reporting

Nearby Weather Stations